sensor_id;sensor_type;location;lat;lon;timestamp;P1;durP1;ratioP1;P2;durP2;ratioP2
68633;SDS011;55625;47.072;22.192;2023-07-22T00:00:50;5.85;;;1.10;;
68633;SDS011;55625;47.072;22.192;2023-07-22T00:03:16;4.10;;;1.25;;
68633;SDS011;55625;47.072;22.192;2023-07-22T00:05:42;4.07;;;1.20;;
68633;SDS011;55625;47.072;22.192;2023-07-22T00:08:08;4.43;;;1.50;;
68633;SDS011;55625;47.072;22.192;2023-07-22T00:10:34;4.63;;;1.02;;
68633;SDS011;55625;47.072;22.192;2023-07-22T00:13:00;3.42;;;1.13;;
68633;SDS011;55625;47.072;22.192;2023-07-22T00:15:26;4.00;;;1.20;;
68633;SDS011;55625;47.072;22.192;2023-07-22T00:17:52;2.67;;;1.05;;
68633;SDS011;55625;47.072;22.192;2023-07-22T00:20:18;11.38;;;1.50;;
68633;SDS011;55625;47.072;22.192;2023-07-22T00:22:45;3.50;;;1.58;;
68633;SDS011;55625;47.072;22.192;2023-07-22T00:25:11;2.77;;;0.97;;
68633;SDS011;55625;47.072;22.192;2023-07-22T00:27:38;3.10;;;0.80;;
68633;SDS011;55625;47.072;22.192;2023-07-22T00:30:06;2.75;;;0.93;;
68633;SDS011;55625;47.072;22.192;2023-07-22T00:32:32;2.22;;;0.70;;
68633;SDS011;55625;47.072;22.192;2023-07-22T00:34:59;4.72;;;2.00;;
68633;SDS011;55625;47.072;22.192;2023-07-22T00:37:25;4.27;;;1.50;;
68633;SDS011;55625;47.072;22.192;2023-07-22T00:39:51;3.35;;;1.25;;
68633;SDS011;55625;47.072;22.192;2023-07-22T00:42:17;3.45;;;1.40;;
68633;SDS011;55625;47.072;22.192;2023-07-22T00:44:43;3.08;;;1.48;;
68633;SDS011;55625;47.072;22.192;2023-07-22T00:47:08;3.20;;;1.10;;
68633;SDS011;55625;47.072;22.192;2023-07-22T00:49:35;2.95;;;1.20;;
68633;SDS011;55625;47.072;22.192;2023-07-22T00:52:02;3.05;;;1.55;;
68633;SDS011;55625;47.072;22.192;2023-07-22T00:54:30;3.45;;;1.35;;
68633;SDS011;55625;47.072;22.192;2023-07-22T00:56:56;2.83;;;1.17;;
68633;SDS011;55625;47.072;22.192;2023-07-22T00:59:24;2.65;;;0.93;;
68633;SDS011;55625;47.072;22.192;2023-07-22T01:01:50;3.47;;;1.33;;
68633;SDS011;55625;47.072;22.192;2023-07-22T01:04:16;4.90;;;1.08;;
68633;SDS011;55625;47.072;22.192;2023-07-22T01:06:48;4.00;;;0.80;;
68633;SDS011;55625;47.072;22.192;2023-07-22T01:09:18;2.72;;;1.40;;
68633;SDS011;55625;47.072;22.192;2023-07-22T01:11:43;3.38;;;1.77;;
68633;SDS011;55625;47.072;22.192;2023-07-22T01:14:09;3.40;;;1.45;;
68633;SDS011;55625;47.072;22.192;2023-07-22T01:16:35;3.80;;;0.93;;
68633;SDS011;55625;47.072;22.192;2023-07-22T01:19:02;2.28;;;1.27;;
68633;SDS011;55625;47.072;22.192;2023-07-22T01:21:29;8.13;;;1.17;;
68633;SDS011;55625;47.072;22.192;2023-07-22T01:23:57;3.40;;;0.85;;
68633;SDS011;55625;47.072;22.192;2023-07-22T01:26:24;5.87;;;1.40;;
68633;SDS011;55625;47.072;22.192;2023-07-22T01:28:49;4.32;;;1.17;;
68633;SDS011;55625;47.072;22.192;2023-07-22T01:31:15;3.85;;;1.55;;
68633;SDS011;55625;47.072;22.192;2023-07-22T01:33:41;2.70;;;1.20;;
68633;SDS011;55625;47.072;22.192;2023-07-22T01:36:07;2.15;;;0.95;;
68633;SDS011;55625;47.072;22.192;2023-07-22T01:38:33;4.60;;;1.05;;
68633;SDS011;55625;47.072;22.192;2023-07-22T01:41:00;2.55;;;1.30;;
68633;SDS011;55625;47.072;22.192;2023-07-22T01:43:26;2.87;;;0.70;;
68633;SDS011;55625;47.072;22.192;2023-07-22T01:45:52;2.22;;;0.75;;
68633;SDS011;55625;47.072;22.192;2023-07-22T01:48:18;4.57;;;1.02;;
68633;SDS011;55625;47.072;22.192;2023-07-22T01:50:44;6.27;;;1.40;;
68633;SDS011;55625;47.072;22.192;2023-07-22T01:53:10;2.92;;;0.93;;
68633;SDS011;55625;47.072;22.192;2023-07-22T01:55:35;2.50;;;0.85;;
68633;SDS011;55625;47.072;22.192;2023-07-22T01:58:01;2.37;;;0.93;;
68633;SDS011;55625;47.072;22.192;2023-07-22T02:00:27;4.22;;;0.80;;
68633;SDS011;55625;47.072;22.192;2023-07-22T02:02:53;2.80;;;1.30;;
68633;SDS011;55625;47.072;22.192;2023-07-22T02:05:19;2.47;;;1.30;;
68633;SDS011;55625;47.072;22.192;2023-07-22T02:07:46;4.85;;;1.52;;
68633;SDS011;55625;47.072;22.192;2023-07-22T02:10:11;3.65;;;1.38;;
68633;SDS011;55625;47.072;22.192;2023-07-22T02:12:38;7.35;;;1.48;;
68633;SDS011;55625;47.072;22.192;2023-07-22T02:15:04;4.27;;;0.70;;
68633;SDS011;55625;47.072;22.192;2023-07-22T02:17:30;2.65;;;1.15;;
68633;SDS011;55625;47.072;22.192;2023-07-22T02:19:56;2.40;;;1.10;;
68633;SDS011;55625;47.072;22.192;2023-07-22T02:22:22;4.53;;;0.97;;
68633;SDS011;55625;47.072;22.192;2023-07-22T02:24:48;4.77;;;1.13;;
68633;SDS011;55625;47.072;22.192;2023-07-22T02:27:14;2.80;;;1.40;;
68633;SDS011;55625;47.072;22.192;2023-07-22T02:29:39;5.00;;;1.37;;
68633;SDS011;55625;47.072;22.192;2023-07-22T02:32:05;2.00;;;0.55;;
68633;SDS011;55625;47.072;22.192;2023-07-22T02:34:32;2.58;;;1.15;;
68633;SDS011;55625;47.072;22.192;2023-07-22T02:36:57;5.75;;;1.25;;
68633;SDS011;55625;47.072;22.192;2023-07-22T02:39:23;3.50;;;0.97;;
68633;SDS011;55625;47.072;22.192;2023-07-22T02:41:49;3.22;;;1.17;;
68633;SDS011;55625;47.072;22.192;2023-07-22T02:44:15;2.47;;;0.88;;
68633;SDS011;55625;47.072;22.192;2023-07-22T02:46:41;2.43;;;1.03;;
68633;SDS011;55625;47.072;22.192;2023-07-22T02:49:06;2.88;;;0.80;;
68633;SDS011;55625;47.072;22.192;2023-07-22T02:51:32;3.10;;;0.90;;
68633;SDS011;55625;47.072;22.192;2023-07-22T02:53:58;5.13;;;1.30;;
68633;SDS011;55625;47.072;22.192;2023-07-22T02:56:24;3.45;;;1.15;;
68633;SDS011;55625;47.072;22.192;2023-07-22T02:58:50;2.70;;;0.75;;
68633;SDS011;55625;47.072;22.192;2023-07-22T03:01:16;5.43;;;1.27;;
68633;SDS011;55625;47.072;22.192;2023-07-22T03:03:42;5.63;;;1.40;;
68633;SDS011;55625;47.072;22.192;2023-07-22T03:06:07;4.57;;;1.30;;
68633;SDS011;55625;47.072;22.192;2023-07-22T03:08:34;3.60;;;1.42;;
68633;SDS011;55625;47.072;22.192;2023-07-22T03:11:01;3.60;;;1.03;;
68633;SDS011;55625;47.072;22.192;2023-07-22T03:13:28;2.33;;;0.75;;
68633;SDS011;55625;47.072;22.192;2023-07-22T03:15:55;4.55;;;1.08;;
68633;SDS011;55625;47.072;22.192;2023-07-22T03:18:21;3.95;;;1.10;;
68633;SDS011;55625;47.072;22.192;2023-07-22T03:20:47;4.93;;;1.63;;
68633;SDS011;55625;47.072;22.192;2023-07-22T03:23:13;2.83;;;0.80;;
68633;SDS011;55625;47.072;22.192;2023-07-22T03:25:39;7.13;;;1.52;;
68633;SDS011;55625;47.072;22.192;2023-07-22T03:28:06;4.88;;;1.30;;
68633;SDS011;55625;47.072;22.192;2023-07-22T03:30:32;4.88;;;1.40;;
68633;SDS011;55625;47.072;22.192;2023-07-22T03:32:59;3.87;;;1.53;;
68633;SDS011;55625;47.072;22.192;2023-07-22T03:35:25;5.70;;;2.03;;
68633;SDS011;55625;47.072;22.192;2023-07-22T03:37:52;3.42;;;1.15;;
68633;SDS011;55625;47.072;22.192;2023-07-22T03:40:18;9.57;;;2.17;;
68633;SDS011;55625;47.072;22.192;2023-07-22T03:42:53;6.03;;;1.80;;
68633;SDS011;55625;47.072;22.192;2023-07-22T03:45:21;4.00;;;2.47;;
68633;SDS011;55625;47.072;22.192;2023-07-22T03:47:50;4.28;;;1.70;;
68633;SDS011;55625;47.072;22.192;2023-07-22T03:50:19;4.28;;;1.98;;
68633;SDS011;55625;47.072;22.192;2023-07-22T03:52:45;5.38;;;2.22;;
68633;SDS011;55625;47.072;22.192;2023-07-22T03:55:11;4.07;;;2.03;;
68633;SDS011;55625;47.072;22.192;2023-07-22T03:57:37;4.03;;;1.83;;
68633;SDS011;55625;47.072;22.192;2023-07-22T04:00:03;6.03;;;2.13;;
68633;SDS011;55625;47.072;22.192;2023-07-22T04:02:30;9.45;;;2.28;;
68633;SDS011;55625;47.072;22.192;2023-07-22T04:04:56;8.17;;;2.97;;
68633;SDS011;55625;47.072;22.192;2023-07-22T04:07:22;7.88;;;2.70;;
68633;SDS011;55625;47.072;22.192;2023-07-22T04:09:49;5.43;;;2.55;;
68633;SDS011;55625;47.072;22.192;2023-07-22T04:12:14;8.47;;;3.63;;
68633;SDS011;55625;47.072;22.192;2023-07-22T04:14:40;4.50;;;3.20;;
68633;SDS011;55625;47.072;22.192;2023-07-22T04:17:06;5.75;;;3.20;;
68633;SDS011;55625;47.072;22.192;2023-07-22T04:19:32;10.15;;;4.68;;
68633;SDS011;55625;47.072;22.192;2023-07-22T04:21:58;7.67;;;4.33;;
68633;SDS011;55625;47.072;22.192;2023-07-22T04:24:29;7.65;;;4.38;;
68633;SDS011;55625;47.072;22.192;2023-07-22T04:26:56;13.15;;;4.88;;
68633;SDS011;55625;47.072;22.192;2023-07-22T04:29:22;7.32;;;4.45;;
68633;SDS011;55625;47.072;22.192;2023-07-22T04:31:48;8.40;;;4.93;;
68633;SDS011;55625;47.072;22.192;2023-07-22T04:34:14;10.70;;;4.55;;
68633;SDS011;55625;47.072;22.192;2023-07-22T04:36:40;7.63;;;4.82;;
68633;SDS011;55625;47.072;22.192;2023-07-22T04:39:05;10.57;;;5.53;;
68633;SDS011;55625;47.072;22.192;2023-07-22T04:41:32;7.40;;;4.82;;
68633;SDS011;55625;47.072;22.192;2023-07-22T04:43:58;8.25;;;3.78;;
68633;SDS011;55625;47.072;22.192;2023-07-22T04:46:26;8.60;;;5.20;;
68633;SDS011;55625;47.072;22.192;2023-07-22T04:48:54;7.68;;;4.47;;
68633;SDS011;55625;47.072;22.192;2023-07-22T04:51:20;8.52;;;4.97;;
68633;SDS011;55625;47.072;22.192;2023-07-22T04:53:47;7.70;;;3.95;;
68633;SDS011;55625;47.072;22.192;2023-07-22T04:56:13;7.17;;;4.37;;
68633;SDS011;55625;47.072;22.192;2023-07-22T04:58:38;8.37;;;4.40;;
68633;SDS011;55625;47.072;22.192;2023-07-22T05:01:04;10.02;;;4.45;;
68633;SDS011;55625;47.072;22.192;2023-07-22T05:03:30;10.40;;;4.50;;
68633;SDS011;55625;47.072;22.192;2023-07-22T05:05:56;5.40;;;4.30;;
68633;SDS011;55625;47.072;22.192;2023-07-22T05:08:23;10.65;;;4.22;;
68633;SDS011;55625;47.072;22.192;2023-07-22T05:10:49;10.20;;;4.40;;
68633;SDS011;55625;47.072;22.192;2023-07-22T05:13:14;6.93;;;3.90;;
68633;SDS011;55625;47.072;22.192;2023-07-22T05:15:41;7.07;;;3.83;;
68633;SDS011;55625;47.072;22.192;2023-07-22T05:18:07;8.07;;;3.17;;
68633;SDS011;55625;47.072;22.192;2023-07-22T05:20:33;6.90;;;3.35;;
68633;SDS011;55625;47.072;22.192;2023-07-22T05:22:59;6.57;;;3.67;;
68633;SDS011;55625;47.072;22.192;2023-07-22T05:25:24;6.68;;;3.88;;
68633;SDS011;55625;47.072;22.192;2023-07-22T05:27:50;6.30;;;3.67;;
68633;SDS011;55625;47.072;22.192;2023-07-22T05:30:16;7.28;;;4.15;;
68633;SDS011;55625;47.072;22.192;2023-07-22T05:32:42;5.93;;;3.45;;
68633;SDS011;55625;47.072;22.192;2023-07-22T05:35:08;7.60;;;3.87;;
68633;SDS011;55625;47.072;22.192;2023-07-22T05:37:34;7.72;;;3.72;;
68633;SDS011;55625;47.072;22.192;2023-07-22T05:39:59;5.97;;;3.95;;
68633;SDS011;55625;47.072;22.192;2023-07-22T05:42:26;6.03;;;3.72;;
68633;SDS011;55625;47.072;22.192;2023-07-22T05:44:54;6.33;;;4.50;;
68633;SDS011;55625;47.072;22.192;2023-07-22T05:47:21;5.72;;;3.58;;
68633;SDS011;55625;47.072;22.192;2023-07-22T05:49:47;6.30;;;3.30;;
68633;SDS011;55625;47.072;22.192;2023-07-22T05:52:13;5.95;;;3.45;;
68633;SDS011;55625;47.072;22.192;2023-07-22T05:54:39;6.83;;;3.47;;
68633;SDS011;55625;47.072;22.192;2023-07-22T05:57:05;7.05;;;4.15;;
68633;SDS011;55625;47.072;22.192;2023-07-22T05:59:31;4.90;;;3.20;;
68633;SDS011;55625;47.072;22.192;2023-07-22T06:01:57;7.30;;;3.50;;
68633;SDS011;55625;47.072;22.192;2023-07-22T06:04:23;6.87;;;3.47;;
68633;SDS011;55625;47.072;22.192;2023-07-22T06:06:49;6.93;;;3.83;;
68633;SDS011;55625;47.072;22.192;2023-07-22T06:09:14;6.75;;;3.42;;
68633;SDS011;55625;47.072;22.192;2023-07-22T06:11:40;9.07;;;5.63;;
68633;SDS011;55625;47.072;22.192;2023-07-22T06:14:06;5.60;;;3.20;;
68633;SDS011;55625;47.072;22.192;2023-07-22T06:16:33;11.32;;;3.53;;
68633;SDS011;55625;47.072;22.192;2023-07-22T06:18:59;6.30;;;3.70;;
68633;SDS011;55625;47.072;22.192;2023-07-22T06:21:24;6.53;;;3.38;;
68633;SDS011;55625;47.072;22.192;2023-07-22T06:23:50;7.72;;;3.15;;
68633;SDS011;55625;47.072;22.192;2023-07-22T06:26:16;5.17;;;3.70;;
68633;SDS011;55625;47.072;22.192;2023-07-22T06:28:42;7.20;;;4.85;;
68633;SDS011;55625;47.072;22.192;2023-07-22T06:31:08;9.00;;;3.33;;
68633;SDS011;55625;47.072;22.192;2023-07-22T06:33:34;6.43;;;3.03;;
68633;SDS011;55625;47.072;22.192;2023-07-22T06:35:59;7.05;;;4.30;;
68633;SDS011;55625;47.072;22.192;2023-07-22T06:38:25;6.97;;;4.28;;
68633;SDS011;55625;47.072;22.192;2023-07-22T06:40:54;7.40;;;3.23;;
68633;SDS011;55625;47.072;22.192;2023-07-22T06:43:20;5.57;;;3.92;;
68633;SDS011;55625;47.072;22.192;2023-07-22T06:45:46;5.40;;;2.95;;
68633;SDS011;55625;47.072;22.192;2023-07-22T06:48:12;7.50;;;4.17;;
68633;SDS011;55625;47.072;22.192;2023-07-22T06:50:38;6.97;;;3.03;;
68633;SDS011;55625;47.072;22.192;2023-07-22T06:53:04;4.70;;;3.00;;
68633;SDS011;55625;47.072;22.192;2023-07-22T06:55:29;6.40;;;4.20;;
68633;SDS011;55625;47.072;22.192;2023-07-22T06:57:56;9.07;;;3.30;;
68633;SDS011;55625;47.072;22.192;2023-07-22T07:00:22;5.53;;;3.63;;
68633;SDS011;55625;47.072;22.192;2023-07-22T07:02:49;6.57;;;3.38;;
68633;SDS011;55625;47.072;22.192;2023-07-22T07:05:16;5.27;;;3.40;;
68633;SDS011;55625;47.072;22.192;2023-07-22T07:07:42;8.20;;;4.28;;
68633;SDS011;55625;47.072;22.192;2023-07-22T07:10:08;5.38;;;3.25;;
68633;SDS011;55625;47.072;22.192;2023-07-22T07:12:35;5.88;;;3.50;;
68633;SDS011;55625;47.072;22.192;2023-07-22T07:15:01;5.57;;;2.90;;
68633;SDS011;55625;47.072;22.192;2023-07-22T07:17:27;4.88;;;3.22;;
68633;SDS011;55625;47.072;22.192;2023-07-22T07:19:53;5.00;;;2.90;;
68633;SDS011;55625;47.072;22.192;2023-07-22T07:22:18;5.27;;;2.73;;
68633;SDS011;55625;47.072;22.192;2023-07-22T07:24:44;4.05;;;3.03;;
68633;SDS011;55625;47.072;22.192;2023-07-22T07:27:10;6.07;;;2.40;;
68633;SDS011;55625;47.072;22.192;2023-07-22T07:29:36;6.33;;;3.43;;
68633;SDS011;55625;47.072;22.192;2023-07-22T07:32:01;7.00;;;4.22;;
68633;SDS011;55625;47.072;22.192;2023-07-22T07:34:28;6.63;;;3.72;;
68633;SDS011;55625;47.072;22.192;2023-07-22T07:36:53;5.43;;;3.27;;
68633;SDS011;55625;47.072;22.192;2023-07-22T07:39:19;6.70;;;3.22;;
68633;SDS011;55625;47.072;22.192;2023-07-22T07:41:45;4.78;;;2.72;;
68633;SDS011;55625;47.072;22.192;2023-07-22T07:44:11;3.60;;;2.13;;
68633;SDS011;55625;47.072;22.192;2023-07-22T07:46:37;7.40;;;2.78;;
68633;SDS011;55625;47.072;22.192;2023-07-22T07:49:03;6.53;;;2.47;;
68633;SDS011;55625;47.072;22.192;2023-07-22T07:51:30;8.63;;;2.50;;
68633;SDS011;55625;47.072;22.192;2023-07-22T07:53:57;4.78;;;2.13;;
68633;SDS011;55625;47.072;22.192;2023-07-22T07:56:24;5.95;;;1.70;;
68633;SDS011;55625;47.072;22.192;2023-07-22T07:58:51;3.50;;;1.45;;
68633;SDS011;55625;47.072;22.192;2023-07-22T08:01:18;4.72;;;1.42;;
68633;SDS011;55625;47.072;22.192;2023-07-22T08:03:44;6.60;;;1.90;;
68633;SDS011;55625;47.072;22.192;2023-07-22T08:06:10;3.95;;;1.85;;
68633;SDS011;55625;47.072;22.192;2023-07-22T08:08:37;3.60;;;2.08;;
68633;SDS011;55625;47.072;22.192;2023-07-22T08:11:11;3.85;;;1.65;;
68633;SDS011;55625;47.072;22.192;2023-07-22T08:13:39;4.57;;;2.57;;
68633;SDS011;55625;47.072;22.192;2023-07-22T08:16:07;4.65;;;1.63;;
68633;SDS011;55625;47.072;22.192;2023-07-22T08:18:34;4.07;;;1.75;;
68633;SDS011;55625;47.072;22.192;2023-07-22T08:21:02;5.55;;;2.10;;
68633;SDS011;55625;47.072;22.192;2023-07-22T08:23:31;3.85;;;1.27;;
68633;SDS011;55625;47.072;22.192;2023-07-22T08:25:57;4.80;;;1.90;;
68633;SDS011;55625;47.072;22.192;2023-07-22T08:28:22;8.05;;;2.05;;
68633;SDS011;55625;47.072;22.192;2023-07-22T08:30:48;4.57;;;2.28;;
68633;SDS011;55625;47.072;22.192;2023-07-22T08:33:15;3.58;;;1.40;;
68633;SDS011;55625;47.072;22.192;2023-07-22T08:35:41;8.43;;;2.73;;
68633;SDS011;55625;47.072;22.192;2023-07-22T08:38:08;7.13;;;2.33;;
68633;SDS011;55625;47.072;22.192;2023-07-22T08:40:34;3.67;;;1.58;;
68633;SDS011;55625;47.072;22.192;2023-07-22T08:43:05;4.90;;;1.80;;
68633;SDS011;55625;47.072;22.192;2023-07-22T08:45:36;4.75;;;1.70;;
68633;SDS011;55625;47.072;22.192;2023-07-22T08:50:58;7.68;;;1.92;;
68633;SDS011;55625;47.072;22.192;2023-07-22T08:53:28;3.92;;;2.47;;
68633;SDS011;55625;47.072;22.192;2023-07-22T08:55:55;4.15;;;2.03;;
68633;SDS011;55625;47.072;22.192;2023-07-22T08:58:21;3.03;;;1.43;;
68633;SDS011;55625;47.072;22.192;2023-07-22T09:00:49;7.20;;;1.53;;
68633;SDS011;55625;47.072;22.192;2023-07-22T09:03:15;3.75;;;1.70;;
68633;SDS011;55625;47.072;22.192;2023-07-22T09:05:42;3.13;;;1.92;;
68633;SDS011;55625;47.072;22.192;2023-07-22T09:08:09;3.85;;;1.60;;
68633;SDS011;55625;47.072;22.192;2023-07-22T09:10:34;3.83;;;1.52;;
68633;SDS011;55625;47.072;22.192;2023-07-22T09:13:02;4.20;;;1.83;;
68633;SDS011;55625;47.072;22.192;2023-07-22T09:15:29;4.18;;;1.83;;
68633;SDS011;55625;47.072;22.192;2023-07-22T09:18:01;7.28;;;2.35;;
68633;SDS011;55625;47.072;22.192;2023-07-22T09:20:30;5.00;;;2.47;;
68633;SDS011;55625;47.072;22.192;2023-07-22T09:22:56;4.28;;;1.40;;
68633;SDS011;55625;47.072;22.192;2023-07-22T09:25:24;4.07;;;2.17;;
68633;SDS011;55625;47.072;22.192;2023-07-22T09:27:53;4.65;;;2.42;;
68633;SDS011;55625;47.072;22.192;2023-07-22T09:30:24;7.43;;;2.42;;
68633;SDS011;55625;47.072;22.192;2023-07-22T09:32:52;4.90;;;1.90;;
68633;SDS011;55625;47.072;22.192;2023-07-22T09:35:20;5.97;;;0.95;;
68633;SDS011;55625;47.072;22.192;2023-07-22T09:37:47;4.33;;;1.97;;
68633;SDS011;55625;47.072;22.192;2023-07-22T09:42:42;4.32;;;1.65;;
68633;SDS011;55625;47.072;22.192;2023-07-22T09:45:19;5.00;;;1.98;;
68633;SDS011;55625;47.072;22.192;2023-07-22T09:47:48;3.80;;;1.92;;
68633;SDS011;55625;47.072;22.192;2023-07-22T09:50:21;3.00;;;1.50;;
68633;SDS011;55625;47.072;22.192;2023-07-22T09:52:51;2.65;;;1.05;;
68633;SDS011;55625;47.072;22.192;2023-07-22T09:55:28;12.00;;;1.95;;
68633;SDS011;55625;47.072;22.192;2023-07-22T09:57:57;3.70;;;2.03;;
68633;SDS011;55625;47.072;22.192;2023-07-22T10:00:28;3.38;;;1.60;;
68633;SDS011;55625;47.072;22.192;2023-07-22T10:02:59;3.97;;;2.50;;
68633;SDS011;55625;47.072;22.192;2023-07-22T10:05:27;4.50;;;2.78;;
68633;SDS011;55625;47.072;22.192;2023-07-22T10:07:57;3.42;;;1.88;;
68633;SDS011;55625;47.072;22.192;2023-07-22T10:10:30;4.95;;;1.50;;
68633;SDS011;55625;47.072;22.192;2023-07-22T10:12:58;5.25;;;1.27;;
68633;SDS011;55625;47.072;22.192;2023-07-22T10:15:25;5.93;;;2.30;;
68633;SDS011;55625;47.072;22.192;2023-07-22T10:17:54;3.97;;;1.83;;
68633;SDS011;55625;47.072;22.192;2023-07-22T10:20:22;5.13;;;2.28;;
68633;SDS011;55625;47.072;22.192;2023-07-22T10:22:49;3.35;;;1.70;;
68633;SDS011;55625;47.072;22.192;2023-07-22T10:25:19;3.42;;;1.52;;
68633;SDS011;55625;47.072;22.192;2023-07-22T10:27:47;3.80;;;1.47;;
68633;SDS011;55625;47.072;22.192;2023-07-22T10:30:17;5.43;;;1.90;;
68633;SDS011;55625;47.072;22.192;2023-07-22T10:32:47;3.00;;;1.67;;
68633;SDS011;55625;47.072;22.192;2023-07-22T10:35:17;2.75;;;1.38;;
68633;SDS011;55625;47.072;22.192;2023-07-22T10:38:06;3.50;;;1.63;;
68633;SDS011;55625;47.072;22.192;2023-07-22T10:40:33;3.10;;;1.13;;
68633;SDS011;55625;47.072;22.192;2023-07-22T10:46:09;5.57;;;1.48;;
68633;SDS011;55625;47.072;22.192;2023-07-22T10:48:40;2.60;;;1.15;;
68633;SDS011;55625;47.072;22.192;2023-07-22T10:51:09;4.28;;;2.42;;
68633;SDS011;55625;47.072;22.192;2023-07-22T10:53:49;4.37;;;1.93;;
68633;SDS011;55625;47.072;22.192;2023-07-22T10:56:19;6.05;;;1.50;;
68633;SDS011;55625;47.072;22.192;2023-07-22T11:11:53;3.75;;;1.80;;
68633;SDS011;55625;47.072;22.192;2023-07-22T11:14:25;3.92;;;1.55;;
68633;SDS011;55625;47.072;22.192;2023-07-22T11:16:52;4.05;;;1.80;;
68633;SDS011;55625;47.072;22.192;2023-07-22T11:19:19;3.67;;;2.00;;
68633;SDS011;55625;47.072;22.192;2023-07-22T11:21:49;3.50;;;1.70;;
68633;SDS011;55625;47.072;22.192;2023-07-22T11:24:16;3.58;;;1.48;;
68633;SDS011;55625;47.072;22.192;2023-07-22T11:26:44;3.95;;;1.95;;
68633;SDS011;55625;47.072;22.192;2023-07-22T11:29:11;3.75;;;1.98;;
68633;SDS011;55625;47.072;22.192;2023-07-22T11:31:39;3.47;;;1.50;;
68633;SDS011;55625;47.072;22.192;2023-07-22T11:34:10;6.32;;;2.13;;
68633;SDS011;55625;47.072;22.192;2023-07-22T11:36:38;6.90;;;2.03;;
68633;SDS011;55625;47.072;22.192;2023-07-22T11:39:06;5.55;;;2.95;;
68633;SDS011;55625;47.072;22.192;2023-07-22T11:41:35;6.20;;;2.85;;
68633;SDS011;55625;47.072;22.192;2023-07-22T11:44:02;3.63;;;2.30;;
68633;SDS011;55625;47.072;22.192;2023-07-22T11:49:32;4.57;;;1.98;;
68633;SDS011;55625;47.072;22.192;2023-07-22T11:52:01;3.75;;;1.80;;
68633;SDS011;55625;47.072;22.192;2023-07-22T11:54:31;5.53;;;2.78;;
68633;SDS011;55625;47.072;22.192;2023-07-22T11:57:09;4.70;;;2.17;;
68633;SDS011;55625;47.072;22.192;2023-07-22T11:59:46;2.95;;;1.67;;
68633;SDS011;55625;47.072;22.192;2023-07-22T12:02:14;4.93;;;1.92;;
68633;SDS011;55625;47.072;22.192;2023-07-22T12:04:41;4.65;;;2.55;;
68633;SDS011;55625;47.072;22.192;2023-07-22T12:07:30;3.28;;;1.65;;
68633;SDS011;55625;47.072;22.192;2023-07-22T12:09:59;3.77;;;1.63;;
68633;SDS011;55625;47.072;22.192;2023-07-22T12:15:04;2.63;;;1.33;;
68633;SDS011;55625;47.072;22.192;2023-07-22T12:18:00;7.05;;;1.60;;
68633;SDS011;55625;47.072;22.192;2023-07-22T12:20:26;4.35;;;2.20;;
68633;SDS011;55625;47.072;22.192;2023-07-22T12:22:55;3.87;;;1.53;;
68633;SDS011;55625;47.072;22.192;2023-07-22T12:25:22;4.15;;;1.77;;
68633;SDS011;55625;47.072;22.192;2023-07-22T12:27:49;3.03;;;1.52;;
68633;SDS011;55625;47.072;22.192;2023-07-22T12:30:15;2.88;;;1.35;;
68633;SDS011;55625;47.072;22.192;2023-07-22T12:32:41;3.67;;;1.55;;
68633;SDS011;55625;47.072;22.192;2023-07-22T12:35:07;2.63;;;1.20;;
68633;SDS011;55625;47.072;22.192;2023-07-22T12:37:34;2.90;;;1.13;;
68633;SDS011;55625;47.072;22.192;2023-07-22T12:40:01;3.17;;;1.00;;
68633;SDS011;55625;47.072;22.192;2023-07-22T12:42:30;3.30;;;1.65;;
68633;SDS011;55625;47.072;22.192;2023-07-22T12:44:55;3.40;;;2.10;;
68633;SDS011;55625;47.072;22.192;2023-07-22T12:47:21;3.10;;;1.45;;
68633;SDS011;55625;47.072;22.192;2023-07-22T12:49:47;5.57;;;2.10;;
68633;SDS011;55625;47.072;22.192;2023-07-22T12:52:13;2.57;;;1.10;;
68633;SDS011;55625;47.072;22.192;2023-07-22T12:54:39;2.78;;;1.27;;
68633;SDS011;55625;47.072;22.192;2023-07-22T12:57:04;3.80;;;2.47;;
68633;SDS011;55625;47.072;22.192;2023-07-22T12:59:30;4.22;;;1.60;;
68633;SDS011;55625;47.072;22.192;2023-07-22T13:01:56;3.35;;;1.42;;
68633;SDS011;55625;47.072;22.192;2023-07-22T13:04:23;3.47;;;1.92;;
68633;SDS011;55625;47.072;22.192;2023-07-22T13:06:50;4.30;;;1.50;;
68633;SDS011;55625;47.072;22.192;2023-07-22T13:09:17;3.10;;;1.30;;
68633;SDS011;55625;47.072;22.192;2023-07-22T13:11:43;3.95;;;1.77;;
68633;SDS011;55625;47.072;22.192;2023-07-22T13:14:10;3.88;;;1.80;;
68633;SDS011;55625;47.072;22.192;2023-07-22T13:16:36;3.17;;;1.37;;
68633;SDS011;55625;47.072;22.192;2023-07-22T13:19:02;3.70;;;2.07;;
68633;SDS011;55625;47.072;22.192;2023-07-22T13:21:28;3.78;;;1.48;;
68633;SDS011;55625;47.072;22.192;2023-07-22T13:23:55;2.80;;;1.02;;
68633;SDS011;55625;47.072;22.192;2023-07-22T13:26:21;4.87;;;2.07;;
68633;SDS011;55625;47.072;22.192;2023-07-22T13:28:47;3.30;;;1.40;;
68633;SDS011;55625;47.072;22.192;2023-07-22T13:31:12;2.75;;;1.42;;
68633;SDS011;55625;47.072;22.192;2023-07-22T13:33:38;5.27;;;1.30;;
68633;SDS011;55625;47.072;22.192;2023-07-22T13:36:05;3.35;;;1.10;;
68633;SDS011;55625;47.072;22.192;2023-07-22T13:38:31;4.70;;;1.85;;
68633;SDS011;55625;47.072;22.192;2023-07-22T13:40:57;3.28;;;1.42;;
68633;SDS011;55625;47.072;22.192;2023-07-22T13:43:23;3.33;;;1.43;;
68633;SDS011;55625;47.072;22.192;2023-07-22T13:45:50;4.43;;;1.55;;
68633;SDS011;55625;47.072;22.192;2023-07-22T13:48:16;2.63;;;1.00;;
68633;SDS011;55625;47.072;22.192;2023-07-22T13:50:41;2.37;;;0.90;;
68633;SDS011;55625;47.072;22.192;2023-07-22T13:53:07;4.25;;;1.77;;
68633;SDS011;55625;47.072;22.192;2023-07-22T13:55:33;3.83;;;1.30;;
68633;SDS011;55625;47.072;22.192;2023-07-22T13:57:59;3.73;;;1.27;;
68633;SDS011;55625;47.072;22.192;2023-07-22T14:00:24;3.50;;;1.90;;
68633;SDS011;55625;47.072;22.192;2023-07-22T14:02:50;3.80;;;1.60;;
68633;SDS011;55625;47.072;22.192;2023-07-22T14:05:16;4.70;;;1.67;;
68633;SDS011;55625;47.072;22.192;2023-07-22T14:07:42;3.22;;;1.50;;
68633;SDS011;55625;47.072;22.192;2023-07-22T14:10:08;3.27;;;0.90;;
68633;SDS011;55625;47.072;22.192;2023-07-22T14:12:34;3.35;;;1.65;;
68633;SDS011;55625;47.072;22.192;2023-07-22T14:15:00;4.00;;;2.13;;
68633;SDS011;55625;47.072;22.192;2023-07-22T14:17:29;3.97;;;1.25;;
68633;SDS011;55625;47.072;22.192;2023-07-22T14:19:57;4.03;;;1.23;;
68633;SDS011;55625;47.072;22.192;2023-07-22T14:22:24;3.43;;;1.60;;
68633;SDS011;55625;47.072;22.192;2023-07-22T14:24:49;3.15;;;1.55;;
68633;SDS011;55625;47.072;22.192;2023-07-22T14:27:15;4.40;;;1.67;;
68633;SDS011;55625;47.072;22.192;2023-07-22T14:29:41;3.07;;;1.63;;
68633;SDS011;55625;47.072;22.192;2023-07-22T14:32:07;4.03;;;1.83;;
68633;SDS011;55625;47.072;22.192;2023-07-22T14:34:34;3.17;;;1.42;;
68633;SDS011;55625;47.072;22.192;2023-07-22T14:37:00;5.83;;;1.60;;
68633;SDS011;55625;47.072;22.192;2023-07-22T14:39:25;5.72;;;1.75;;
68633;SDS011;55625;47.072;22.192;2023-07-22T14:41:51;4.63;;;1.48;;
68633;SDS011;55625;47.072;22.192;2023-07-22T14:44:18;2.63;;;1.23;;
68633;SDS011;55625;47.072;22.192;2023-07-22T14:46:45;4.50;;;1.27;;
68633;SDS011;55625;47.072;22.192;2023-07-22T14:49:10;5.93;;;1.27;;
68633;SDS011;55625;47.072;22.192;2023-07-22T14:51:36;3.28;;;1.67;;
68633;SDS011;55625;47.072;22.192;2023-07-22T14:54:02;4.10;;;2.30;;
68633;SDS011;55625;47.072;22.192;2023-07-22T14:56:29;3.50;;;1.00;;
68633;SDS011;55625;47.072;22.192;2023-07-22T14:58:55;3.80;;;1.67;;